• Join FlightAware (Why Join?)
  • Login
  • US Flag 
11:14PM EST


 

Airport Tracker/Info


-or-


 

Live Flight TrackerFlight Track Log ✈ SWA3764 ✈ 24-Apr-2013 ✈ KMDW - KBNA

Flight Track Log - Related Links

Times and Time Zones

All times are in EDT time to prevent confusion due to time zone crossing. See the SWA3764 flight status page for this flight to view local times or setup timezone preferences in your user account.

Time Position Orientation Groundspeed Altitude Reporting Facility
EDT Latitude Longitude Course Direction KTS MPH feet Rate Location/Type
07:21AM 41.7778 -87.8106 180° South 209 241 3,400  Level Chicago Center
07:22AM 41.7244 -87.8600 215° Southwest 228 262 5,300 2,780 Climbing Chicago Center
07:23AM 41.6628 -87.9139 213° Southwest 255 293 9,100 3,197 Climbing Chicago Center
07:24AM 41.5922 -87.9464 199° South 285 328 11,800 1,426 Climbing Chicago Center
07:25AM 41.5147 -87.9158 164° South 288 331 12,000 732 Climbing Chicago Center
07:26AM 41.4364 -87.8864 164° South 288 331 13,300 2,244 Climbing Chicago Center
07:27AM 41.1768 -87.8833 180° South  Level FlightAware Approximate
07:27AM 41.3561 -87.8836 179° South 286 329 16,600  Level Chicago Center
07:28AM 41.2711 -87.8914 184° South 301 346 20,100 3,610 Climbing Chicago Center
07:29AM 41.1636 -87.8897 179° South 321 369 24,000 3,541 Climbing Chicago Center
07:30AM 41.0758 -87.8878 179° South 319 367 27,300 2,439 Climbing Chicago Center
07:31AM 40.9906 -87.8850 179° South 309 356 29,000 829 Climbing Chicago Center
07:32AM 40.9033 -87.8819 178° South 313 360 29,000  Level Chicago Center
07:34AM 40.8119 -87.8789 179° South 325 374 29,000  Level Chicago Center
07:35AM 40.7150 -87.8750 178° South 346 398 29,000 195 Level Chicago Center
07:36AM 40.6208 -87.8847 184° South 346 398 29,400 537 Climbing Chicago Center
07:37AM 40.5289 -87.9064 190° South 340 391 30,100 1,659 Climbing Chicago Center
07:38AM 40.4194 -87.9294 189° South 334 384 32,800 1,415 Climbing Chicago Center
07:39AM 40.3228 -87.9225 177° South 346 398 33,000 98 Climbing Chicago Center
07:40AM 40.2269 -87.9150 177° South 348 400 33,000  Level Chicago Center
07:41AM 40.1314 -87.9089 177° South 349 402 33,000  Level Chicago Center
07:42AM 40.0344 -87.9031 177° South 349 402 33,000 -146 Level Chicago Center
07:43AM 39.9375 -87.8956 177° South 348 400 32,700 -1,165 Descending Chicago Center
07:43AM 39.8556 -87.8911 178° South 345 397 31,000 -990 Descending Indianapolis Center
07:44AM 39.7567 -87.8844 177° South 350 403 31,000  Level Indianapolis Center
07:45AM 39.6583 -87.8764 176° South 352 405 31,000  Level Indianapolis Center
07:47AM 39.5558 -87.8708 178° South 363 418 31,000 -98 Level Indianapolis Center
07:48AM 39.4531 -87.8636 177° South 367 422 30,800 -1,279 Descending Indianapolis Center
07:49AM 39.3608 -87.8575 177° South 360 414 28,400 -1,854 Descending Indianapolis Center
07:50AM 39.2631 -87.8506 177° South 352 405 27,000 -683 Descending Indianapolis Center
07:51AM 39.1475 -87.8433 177° South 346 398 27,000  Level Indianapolis Center
07:52AM 39.0511 -87.8372 177° South 346 398 27,000  Level Indianapolis Center
07:53AM 38.9558 -87.8306 177° South 343 395 27,000  Level Indianapolis Center
07:54AM 38.8597 -87.8236 177° South 344 396 27,000  Level Indianapolis Center
07:55AM 38.7622 -87.8169 177° South 347 399 27,000  Level Indianapolis Center
07:56AM 38.6656 -87.8103 177° South 347 399 27,000  Level Indianapolis Center
07:57AM 38.5686 -87.7808 167° South 364 419 27,000  Level Indianapolis Center
07:58AM 38.4739 -87.7389 161° South 360 414 27,000  Level Indianapolis Center
07:59AM 38.3783 -87.6967 161° South 362 417 27,000  Level Indianapolis Center
08:00AM 38.2642 -87.6464 161° South 363 418 27,000  Level Indianapolis Center
08:01AM 38.1697 -87.6056 161° South 359 413 27,000  Level Indianapolis Center
08:02AM 38.0744 -87.5642 161° South 361 415 27,000  Level Indianapolis Center
08:03AM 37.9797 -87.5219 161° South 362 417 27,000  Level Indianapolis Center
08:04AM 37.8850 -87.4819 162° South 359 413 27,000  Level Indianapolis Center
08:05AM 37.7883 -87.4394 161° South 365 420 27,000  Level Indianapolis Center
08:06AM 37.6775 -87.3919 161° South 368 423 27,000  Level Indianapolis Center
08:07AM 37.5800 -87.3503 161° South 367 422 27,000 -133 Level Indianapolis Center
08:07AM 37.5325 -87.3314 162° South 367 422 26,800 -1,348 Descending Memphis Center
08:08AM 37.4581 -87.2742 149° Southeast 360 414 25,000 -1,850 Descending Memphis Center
08:09AM 37.3750 -87.1964 143° Southeast 365 420 23,100 -1,000 Descending Memphis Center
08:10AM 37.2978 -87.1133 139° Southeast 365 420 23,000 -1,050 Descending Memphis Center
08:11AM 37.2228 -87.0306 139° Southeast 365 420 21,000 -2,050 Descending Memphis Center
08:12AM 37.1433 -86.9453 139° Southeast 365 420 18,900 -2,100 Descending Memphis Center
08:13AM 37.0661 -86.8681 141° Southeast 365 420 16,800 -2,100 Descending Memphis Center
08:14AM 36.9747 -86.8019 150° Southeast 349 402 14,700 -2,050 Descending Memphis Center
08:15AM 36.8914 -86.7331 147° Southeast 354 407 12,700 -1,850 Descending Memphis Center
08:16AM 36.8108 -86.6850 154° Southeast 347 399 11,000 -1,100 Descending Memphis Center
08:17AM 36.7406 -86.6364 151° Southeast 307 353 10,500 -950 Descending Memphis Center
08:18AM 36.6672 -86.6242 172° South 271 312 9,100 -1,450 Descending Memphis Center
08:19AM 36.6025 -86.6169 175° South 253 291 7,600 -1,341 Descending Memphis Center
08:21AM 36.5059 -86.6294 186° South  Level Estimated
08:21AM 36.4667 -86.6000 186° South 233 268 5,100  Level Nashville TRACON
08:22AM 36.4167 -86.6000 180° South 211 243 4,400 -947 Descending Nashville TRACON
08:23AM 36.3667 -86.6000 180° South 212 244 3,300 -947 Descending Nashville TRACON
08:24AM 36.3000 -86.5833 169° South 212 244 2,600 -350 Descending Nashville TRACON
08:25AM 36.2500 -86.6167 208° Southwest 191 220 2,600 -250 Level Nashville TRACON
08:26AM 36.2000 -86.6333 195° South 165 190 2,100 -550 Descending Nashville TRACON
08:27AM 36.1667 -86.6333 180° South 124 143 1,500 -650 Descending Nashville TRACON
08:28AM 36.1333 -86.6500 202° Southwest 112 129 800 -378 Descending Nashville TRACON
08:29AM 36.1058 -86.6731 214° Southwest 124 143 700 -90 Descending Memphis Center
08:32AM 36.1167 -86.6667 90° East  Level FlightAware Approximate
08:39AM 36.1245 -86.6782 90° East  Level Estimated
08:40AM 36.1245 -86.6782 90° East  Level Estimated
08:41AM 36.1245 -86.6782 90° East  Level Estimated
08:42AM 36.1245 -86.6782 90° East  Level Estimated
08:43AM 36.1245 -86.6782 90° East  Level Estimated
08:44AM 36.1245 -86.6782 90° East  Level Estimated
08:45AM 36.1245 -86.6782 90° East  Level Estimated
08:46AM 36.1245 -86.6782 90° East  Level Estimated
08:47AM 36.1245 -86.6782 90° East  Level Estimated